CheckWX is a tool to help pilots better visualize weather data.  It is not intended as a substitute for an official pre-flight weather briefing.

20:24:36 UTC

KLOM METAR
Wings Field Airport
Philadelphia, Pennsylvania, USA
Current

30 mins ago

KLOM 201955Z AUTO 19011G21KT 10SM SCT038 21/12 A2969 RMK AO1
Observed
Apr-20 @ 19:55 UTC
Wind
  • 190° at 11 KTS
  • Gusting to 21 KTS
Visibility
10 SM
Flight Rules
VFR
Cloud Levels
  • Scattered at 3,800' AGL
Temperature
21°C / 70°F
Dewpoint
12°C / 54°F
Humidity
57%
Altimeter
29.69" Hg
Pressure
1005.42 hPa
Previous

50 mins ago

KLOM 201935Z AUTO 20012G17KT 10SM CLR 21/12 A2969 RMK AO1
Observed
Apr-20 @ 19:35 UTC
Wind
  • 200° at 12 KTS
  • Gusting to 17 KTS
Visibility
10 SM
Flight Rules
VFR
Cloud Levels
  • Clear skies
Temperature
21°C / 70°F
Dewpoint
12°C / 54°F
Humidity
57%
Altimeter
29.69" Hg
Pressure
1005.42 hPa
Previous

1 hour ago

KLOM 201915Z AUTO 19009G15KT 160V220 10SM SCT034 SCT044 20/14 A2969 RMK AO1
Observed
Apr-20 @ 19:15 UTC
Wind
  • 190° at 9 KTS
  • Gusting to 15 KTS
Visibility
10 SM
Flight Rules
VFR
Cloud Levels
  • Scattered at 3,400' AGL
  • Scattered at 4,400' AGL
Temperature
20°C / 68°F
Dewpoint
14°C / 57°F
Humidity
69%
Altimeter
29.69" Hg
Pressure
1005.42 hPa